sensor_id;sensor_type;location;lat;lon;timestamp;pressure;altitude;pressure_sealevel;temperature;humidity
11515;BME280;5814;41.936;25.556;2023-04-21T00:00:16;112497.60;;;-145.99;100.00
11515;BME280;5814;41.936;25.556;2023-04-21T00:02:43;112497.60;;;-145.99;100.00
11515;BME280;5814;41.936;25.556;2023-04-21T00:05:10;112497.60;;;-145.99;100.00
11515;BME280;5814;41.936;25.556;2023-04-21T00:07:37;98728.89;;;12.31;100.00
11515;BME280;5814;41.936;25.556;2023-04-21T00:10:05;98722.81;;;12.20;100.00
11515;BME280;5814;41.936;25.556;2023-04-21T00:12:32;98724.95;;;12.10;100.00
11515;BME280;5814;41.936;25.556;2023-04-21T00:14:59;98719.83;;;11.96;100.00
11515;BME280;5814;41.936;25.556;2023-04-21T00:17:26;98727.10;;;11.88;100.00
11515;BME280;5814;41.936;25.556;2023-04-21T00:19:54;98724.52;;;11.75;100.00
11515;BME280;5814;41.936;25.556;2023-04-21T00:22:21;98724.77;;;11.80;100.00
11515;BME280;5814;41.936;25.556;2023-04-21T00:24:48;98715.66;;;11.79;100.00
11515;BME280;5814;41.936;25.556;2023-04-21T00:27:15;98717.66;;;11.61;100.00
11515;BME280;5814;41.936;25.556;2023-04-21T00:29:42;98716.52;;;11.22;100.00
11515;BME280;5814;41.936;25.556;2023-04-21T00:32:09;98718.22;;;10.98;100.00
11515;BME280;5814;41.936;25.556;2023-04-21T00:34:37;98715.41;;;11.04;100.00
11515;BME280;5814;41.936;25.556;2023-04-21T00:37:04;98712.94;;;10.75;100.00
11515;BME280;5814;41.936;25.556;2023-04-21T00:39:31;98714.86;;;10.70;100.00
11515;BME280;5814;41.936;25.556;2023-04-21T00:41:58;98701.90;;;10.67;100.00
11515;BME280;5814;41.936;25.556;2023-04-21T00:44:25;98702.75;;;10.93;100.00
11515;BME280;5814;41.936;25.556;2023-04-21T00:46:52;98698.39;;;11.05;100.00
11515;BME280;5814;41.936;25.556;2023-04-21T00:49:21;98706.73;;;11.03;100.00
11515;BME280;5814;41.936;25.556;2023-04-21T00:51:47;98697.05;;;11.18;100.00
11515;BME280;5814;41.936;25.556;2023-04-21T00:54:14;98709.94;;;11.11;100.00
11515;BME280;5814;41.936;25.556;2023-04-21T00:56:41;98700.62;;;11.04;100.00
11515;BME280;5814;41.936;25.556;2023-04-21T00:59:08;98702.72;;;10.94;100.00
11515;BME280;5814;41.936;25.556;2023-04-21T01:01:35;112497.60;;;-145.99;100.00
11515;BME280;5814;41.936;25.556;2023-04-21T01:04:03;112497.60;;;-145.99;100.00
11515;BME280;5814;41.936;25.556;2023-04-21T01:06:30;98693.13;;;11.06;100.00
11515;BME280;5814;41.936;25.556;2023-04-21T01:08:58;112497.60;;;-145.99;100.00
11515;BME280;5814;41.936;25.556;2023-04-21T01:11:25;98687.66;;;11.14;100.00
11515;BME280;5814;41.936;25.556;2023-04-21T01:13:52;112497.60;;;-145.99;100.00
11515;BME280;5814;41.936;25.556;2023-04-21T01:16:20;112497.60;;;-145.99;100.00
11515;BME280;5814;41.936;25.556;2023-04-21T01:18:48;112497.60;;;-145.99;100.00
11515;BME280;5814;41.936;25.556;2023-04-21T01:21:15;112497.60;;;-145.99;100.00
11515;BME280;5814;41.936;25.556;2023-04-21T01:23:42;112497.60;;;-145.99;100.00
11515;BME280;5814;41.936;25.556;2023-04-21T01:26:09;112497.60;;;-145.99;100.00
11515;BME280;5814;41.936;25.556;2023-04-21T01:28:36;112497.60;;;-145.99;100.00
11515;BME280;5814;41.936;25.556;2023-04-21T01:31:04;112497.60;;;-145.99;100.00
11515;BME280;5814;41.936;25.556;2023-04-21T01:33:31;112497.60;;;-145.99;100.00
11515;BME280;5814;41.936;25.556;2023-04-21T01:35:58;112497.60;;;-145.99;100.00
11515;BME280;5814;41.936;25.556;2023-04-21T01:38:25;112497.60;;;-145.99;100.00
11515;BME280;5814;41.936;25.556;2023-04-21T01:40:53;112497.60;;;-145.99;100.00
11515;BME280;5814;41.936;25.556;2023-04-21T01:43:21;112497.60;;;-145.99;100.00
11515;BME280;5814;41.936;25.556;2023-04-21T01:45:47;98680.25;;;11.13;100.00
11515;BME280;5814;41.936;25.556;2023-04-21T01:48:14;98676.12;;;11.07;100.00
11515;BME280;5814;41.936;25.556;2023-04-21T01:50:41;98676.45;;;10.98;100.00
11515;BME280;5814;41.936;25.556;2023-04-21T01:53:08;98679.84;;;10.89;100.00
11515;BME280;5814;41.936;25.556;2023-04-21T01:55:35;98680.02;;;10.71;100.00
11515;BME280;5814;41.936;25.556;2023-04-21T01:58:02;98683.21;;;10.67;100.00
11515;BME280;5814;41.936;25.556;2023-04-21T02:00:30;98680.83;;;10.73;100.00
11515;BME280;5814;41.936;25.556;2023-04-21T02:02:57;98676.25;;;10.80;100.00
11515;BME280;5814;41.936;25.556;2023-04-21T02:05:24;98696.59;;;10.70;100.00
11515;BME280;5814;41.936;25.556;2023-04-21T02:07:51;98686.12;;;10.59;100.00
11515;BME280;5814;41.936;25.556;2023-04-21T02:10:18;98695.56;;;10.49;100.00
11515;BME280;5814;41.936;25.556;2023-04-21T02:12:45;98704.73;;;10.61;100.00
11515;BME280;5814;41.936;25.556;2023-04-21T02:15:13;98698.44;;;10.54;100.00
11515;BME280;5814;41.936;25.556;2023-04-21T02:17:40;98688.63;;;10.49;100.00
11515;BME280;5814;41.936;25.556;2023-04-21T02:20:08;98692.47;;;10.51;100.00
11515;BME280;5814;41.936;25.556;2023-04-21T02:22:35;98685.67;;;10.46;100.00
11515;BME280;5814;41.936;25.556;2023-04-21T02:25:03;98692.38;;;10.27;100.00
11515;BME280;5814;41.936;25.556;2023-04-21T02:27:31;98694.94;;;10.29;100.00
11515;BME280;5814;41.936;25.556;2023-04-21T02:29:58;98686.62;;;10.43;100.00
11515;BME280;5814;41.936;25.556;2023-04-21T02:32:25;98686.44;;;10.49;100.00
11515;BME280;5814;41.936;25.556;2023-04-21T02:34:52;98694.88;;;10.31;100.00
11515;BME280;5814;41.936;25.556;2023-04-21T02:37:20;98688.23;;;10.34;100.00
11515;BME280;5814;41.936;25.556;2023-04-21T02:39:47;98690.08;;;10.45;100.00
11515;BME280;5814;41.936;25.556;2023-04-21T02:42:14;98685.21;;;10.47;100.00
11515;BME280;5814;41.936;25.556;2023-04-21T02:44:41;98692.00;;;10.39;100.00
11515;BME280;5814;41.936;25.556;2023-04-21T02:47:08;98682.28;;;10.16;100.00
11515;BME280;5814;41.936;25.556;2023-04-21T02:49:39;98688.13;;;10.24;100.00
11515;BME280;5814;41.936;25.556;2023-04-21T02:52:02;98670.55;;;9.62;100.00
11515;BME280;5814;41.936;25.556;2023-04-21T02:54:30;98687.73;;;9.68;100.00
11515;BME280;5814;41.936;25.556;2023-04-21T02:56:57;98681.92;;;9.73;100.00
11515;BME280;5814;41.936;25.556;2023-04-21T02:59:24;98689.21;;;9.90;100.00
11515;BME280;5814;41.936;25.556;2023-04-21T03:01:51;98692.88;;;9.41;100.00
11515;BME280;5814;41.936;25.556;2023-04-21T03:04:18;98695.61;;;9.66;100.00
11515;BME280;5814;41.936;25.556;2023-04-21T03:06:45;98690.63;;;9.86;100.00
11515;BME280;5814;41.936;25.556;2023-04-21T03:09:13;98687.77;;;9.95;100.00
11515;BME280;5814;41.936;25.556;2023-04-21T03:11:40;98697.80;;;9.79;100.00
11515;BME280;5814;41.936;25.556;2023-04-21T03:14:07;98703.81;;;9.67;100.00
11515;BME280;5814;41.936;25.556;2023-04-21T03:16:34;98703.58;;;9.75;100.00
11515;BME280;5814;41.936;25.556;2023-04-21T03:19:01;98701.81;;;9.90;100.00
11515;BME280;5814;41.936;25.556;2023-04-21T03:21:28;98694.98;;;9.86;100.00
11515;BME280;5814;41.936;25.556;2023-04-21T03:23:56;98706.08;;;9.78;100.00
11515;BME280;5814;41.936;25.556;2023-04-21T03:26:23;98710.02;;;9.77;100.00
11515;BME280;5814;41.936;25.556;2023-04-21T03:28:50;98704.38;;;9.77;100.00
11515;BME280;5814;41.936;25.556;2023-04-21T03:31:17;98702.63;;;9.78;100.00
11515;BME280;5814;41.936;25.556;2023-04-21T03:33:44;112497.60;;;-145.99;100.00
11515;BME280;5814;41.936;25.556;2023-04-21T03:36:11;98708.83;;;9.45;100.00
11515;BME280;5814;41.936;25.556;2023-04-21T03:38:39;112497.60;;;-145.99;100.00
11515;BME280;5814;41.936;25.556;2023-04-21T03:41:06;112497.60;;;-145.99;100.00
11515;BME280;5814;41.936;25.556;2023-04-21T03:43:33;98704.67;;;9.81;100.00
11515;BME280;5814;41.936;25.556;2023-04-21T03:46:00;98695.59;;;9.80;100.00
11515;BME280;5814;41.936;25.556;2023-04-21T03:48:27;98711.96;;;9.98;100.00
11515;BME280;5814;41.936;25.556;2023-04-21T03:50:54;98706.53;;;10.06;100.00
11515;BME280;5814;41.936;25.556;2023-04-21T03:53:22;98711.98;;;10.11;100.00
11515;BME280;5814;41.936;25.556;2023-04-21T03:55:49;98717.64;;;10.25;100.00
11515;BME280;5814;41.936;25.556;2023-04-21T03:58:16;98716.94;;;10.20;100.00
11515;BME280;5814;41.936;25.556;2023-04-21T04:00:43;98720.14;;;10.29;100.00
11515;BME280;5814;41.936;25.556;2023-04-21T04:03:10;98720.67;;;10.25;100.00
11515;BME280;5814;41.936;25.556;2023-04-21T04:05:37;98726.70;;;10.27;100.00
11515;BME280;5814;41.936;25.556;2023-04-21T04:08:05;98721.95;;;10.12;100.00
11515;BME280;5814;41.936;25.556;2023-04-21T04:10:32;98733.48;;;10.06;100.00
11515;BME280;5814;41.936;25.556;2023-04-21T04:12:59;98730.94;;;10.17;100.00
11515;BME280;5814;41.936;25.556;2023-04-21T04:15:26;98730.23;;;10.91;100.00
11515;BME280;5814;41.936;25.556;2023-04-21T04:17:53;98729.51;;;11.47;100.00
11515;BME280;5814;41.936;25.556;2023-04-21T04:20:21;98726.61;;;12.55;100.00
11515;BME280;5814;41.936;25.556;2023-04-21T04:22:48;98725.49;;;13.61;100.00
11515;BME280;5814;41.936;25.556;2023-04-21T04:25:15;98723.48;;;13.94;100.00
11515;BME280;5814;41.936;25.556;2023-04-21T04:27:42;98723.80;;;14.33;100.00
11515;BME280;5814;41.936;25.556;2023-04-21T04:30:11;98728.75;;;13.56;100.00
11515;BME280;5814;41.936;25.556;2023-04-21T04:32:38;98683.86;;;12.54;100.00
11515;BME280;5814;41.936;25.556;2023-04-21T04:35:06;98733.44;;;12.69;100.00
11515;BME280;5814;41.936;25.556;2023-04-21T04:37:36;98739.93;;;12.49;100.00
11515;BME280;5814;41.936;25.556;2023-04-21T04:40:04;98743.00;;;12.38;100.00
11515;BME280;5814;41.936;25.556;2023-04-21T04:42:32;98735.25;;;12.35;100.00
11515;BME280;5814;41.936;25.556;2023-04-21T04:44:59;98746.91;;;12.16;100.00
11515;BME280;5814;41.936;25.556;2023-04-21T04:47:26;98737.52;;;12.11;100.00
11515;BME280;5814;41.936;25.556;2023-04-21T04:49:54;98755.09;;;12.19;100.00
11515;BME280;5814;41.936;25.556;2023-04-21T04:52:20;98751.87;;;12.34;100.00
11515;BME280;5814;41.936;25.556;2023-04-21T04:54:48;98754.40;;;12.25;100.00
11515;BME280;5814;41.936;25.556;2023-04-21T04:57:15;98747.91;;;12.35;100.00
11515;BME280;5814;41.936;25.556;2023-04-21T04:59:42;98747.31;;;12.49;100.00
11515;BME280;5814;41.936;25.556;2023-04-21T05:02:09;98749.14;;;12.58;100.00
11515;BME280;5814;41.936;25.556;2023-04-21T05:04:36;98749.14;;;12.69;100.00
11515;BME280;5814;41.936;25.556;2023-04-21T05:07:04;98743.94;;;12.78;100.00
11515;BME280;5814;41.936;25.556;2023-04-21T05:09:31;98747.70;;;12.92;100.00
11515;BME280;5814;41.936;25.556;2023-04-21T05:11:58;98733.94;;;12.77;100.00
11515;BME280;5814;41.936;25.556;2023-04-21T05:14:25;98735.21;;;12.99;100.00
11515;BME280;5814;41.936;25.556;2023-04-21T05:16:52;98736.30;;;13.14;100.00
11515;BME280;5814;41.936;25.556;2023-04-21T05:19:20;98739.31;;;13.35;100.00
11515;BME280;5814;41.936;25.556;2023-04-21T05:21:47;98735.42;;;13.34;100.00
11515;BME280;5814;41.936;25.556;2023-04-21T05:24:14;98731.63;;;13.50;100.00
11515;BME280;5814;41.936;25.556;2023-04-21T05:26:41;98739.23;;;13.75;100.00
11515;BME280;5814;41.936;25.556;2023-04-21T05:29:08;98727.69;;;13.98;100.00
11515;BME280;5814;41.936;25.556;2023-04-21T05:31:35;98734.64;;;14.17;100.00
11515;BME280;5814;41.936;25.556;2023-04-21T05:34:03;98733.94;;;14.23;100.00
11515;BME280;5814;41.936;25.556;2023-04-21T05:36:30;98737.03;;;14.31;100.00
11515;BME280;5814;41.936;25.556;2023-04-21T05:38:57;98731.42;;;14.47;100.00
11515;BME280;5814;41.936;25.556;2023-04-21T05:41:24;98732.43;;;14.80;100.00
11515;BME280;5814;41.936;25.556;2023-04-21T05:43:51;98739.16;;;14.94;100.00
11515;BME280;5814;41.936;25.556;2023-04-21T05:46:18;98741.63;;;15.22;100.00
11515;BME280;5814;41.936;25.556;2023-04-21T05:48:46;98740.91;;;15.28;100.00
11515;BME280;5814;41.936;25.556;2023-04-21T05:51:13;112497.60;;;-145.99;100.00
11515;BME280;5814;41.936;25.556;2023-04-21T05:53:42;112497.60;;;-145.99;100.00
11515;BME280;5814;41.936;25.556;2023-04-21T05:56:09;98722.86;;;15.46;100.00
11515;BME280;5814;41.936;25.556;2023-04-21T05:58:36;112497.60;;;-145.99;100.00
11515;BME280;5814;41.936;25.556;2023-04-21T06:01:03;98717.01;;;15.90;100.00
11515;BME280;5814;41.936;25.556;2023-04-21T06:03:30;98713.05;;;15.98;100.00
11515;BME280;5814;41.936;25.556;2023-04-21T06:05:59;98715.44;;;16.18;100.00
11515;BME280;5814;41.936;25.556;2023-04-21T06:08:25;98716.06;;;16.38;100.00
11515;BME280;5814;41.936;25.556;2023-04-21T06:10:53;98718.17;;;16.69;100.00
11515;BME280;5814;41.936;25.556;2023-04-21T06:13:20;98716.80;;;16.70;100.00
11515;BME280;5814;41.936;25.556;2023-04-21T06:15:47;98722.44;;;16.71;100.00
11515;BME280;5814;41.936;25.556;2023-04-21T06:18:14;98715.22;;;16.75;100.00
11515;BME280;5814;41.936;25.556;2023-04-21T06:20:41;98722.52;;;16.93;100.00
11515;BME280;5814;41.936;25.556;2023-04-21T06:23:09;98715.43;;;17.01;100.00
11515;BME280;5814;41.936;25.556;2023-04-21T06:25:36;98715.73;;;17.47;99.08
11515;BME280;5814;41.936;25.556;2023-04-21T06:28:03;98721.64;;;17.57;96.96
11515;BME280;5814;41.936;25.556;2023-04-21T06:30:30;98716.42;;;17.49;95.99
11515;BME280;5814;41.936;25.556;2023-04-21T06:32:57;98701.72;;;17.52;94.80
11515;BME280;5814;41.936;25.556;2023-04-21T06:35:24;98721.51;;;17.45;95.57
11515;BME280;5814;41.936;25.556;2023-04-21T06:37:52;98721.98;;;17.45;94.29
11515;BME280;5814;41.936;25.556;2023-04-21T06:40:19;98719.09;;;17.70;93.48
11515;BME280;5814;41.936;25.556;2023-04-21T06:42:46;98729.70;;;17.91;92.94
11515;BME280;5814;41.936;25.556;2023-04-21T06:45:13;98730.17;;;17.83;93.55
11515;BME280;5814;41.936;25.556;2023-04-21T06:47:40;98727.44;;;17.85;93.95
11515;BME280;5814;41.936;25.556;2023-04-21T06:50:08;98720.52;;;17.54;94.21
11515;BME280;5814;41.936;25.556;2023-04-21T06:52:35;98715.31;;;17.39;94.68
11515;BME280;5814;41.936;25.556;2023-04-21T06:55:03;98709.50;;;17.40;94.56
11515;BME280;5814;41.936;25.556;2023-04-21T06:57:30;98726.78;;;17.38;93.94
11515;BME280;5814;41.936;25.556;2023-04-21T06:59:57;98735.16;;;17.09;94.08
11515;BME280;5814;41.936;25.556;2023-04-21T07:02:24;98728.27;;;17.14;93.88
11515;BME280;5814;41.936;25.556;2023-04-21T07:04:52;98729.88;;;17.09;94.02
11515;BME280;5814;41.936;25.556;2023-04-21T07:07:19;98730.04;;;17.28;93.65
11515;BME280;5814;41.936;25.556;2023-04-21T07:09:46;98731.77;;;17.28;93.57
11515;BME280;5814;41.936;25.556;2023-04-21T07:12:13;98737.19;;;17.26;93.83
11515;BME280;5814;41.936;25.556;2023-04-21T07:14:40;98741.28;;;17.24;94.96
11515;BME280;5814;41.936;25.556;2023-04-21T07:17:07;98737.76;;;17.03;97.25
11515;BME280;5814;41.936;25.556;2023-04-21T07:19:35;98726.47;;;17.22;97.19
11515;BME280;5814;41.936;25.556;2023-04-21T07:22:02;98733.63;;;17.20;97.00
11515;BME280;5814;41.936;25.556;2023-04-21T07:24:29;98731.05;;;17.19;96.35
11515;BME280;5814;41.936;25.556;2023-04-21T07:26:56;98741.55;;;17.34;95.18
11515;BME280;5814;41.936;25.556;2023-04-21T07:29:23;98737.50;;;17.29;94.57
11515;BME280;5814;41.936;25.556;2023-04-21T07:31:51;98732.95;;;17.16;93.83
11515;BME280;5814;41.936;25.556;2023-04-21T07:34:18;98728.22;;;17.37;93.23
11515;BME280;5814;41.936;25.556;2023-04-21T07:36:45;98731.97;;;17.47;92.04
11515;BME280;5814;41.936;25.556;2023-04-21T07:39:12;98737.44;;;17.58;91.23
11515;BME280;5814;41.936;25.556;2023-04-21T07:41:39;98734.08;;;17.77;91.15
11515;BME280;5814;41.936;25.556;2023-04-21T07:44:06;98732.73;;;18.05;89.50
11515;BME280;5814;41.936;25.556;2023-04-21T07:46:34;98725.73;;;18.25;88.37
11515;BME280;5814;41.936;25.556;2023-04-21T07:49:01;98722.42;;;18.22;86.02
11515;BME280;5814;41.936;25.556;2023-04-21T07:51:28;98720.98;;;18.44;85.54
11515;BME280;5814;41.936;25.556;2023-04-21T07:53:55;98719.25;;;18.90;85.08
11515;BME280;5814;41.936;25.556;2023-04-21T07:56:22;98724.56;;;19.16;82.27
11515;BME280;5814;41.936;25.556;2023-04-21T07:58:49;98726.34;;;19.15;82.45
11515;BME280;5814;41.936;25.556;2023-04-21T08:01:16;98721.78;;;19.68;82.03
11515;BME280;5814;41.936;25.556;2023-04-21T08:03:44;98710.41;;;19.97;78.94
11515;BME280;5814;41.936;25.556;2023-04-21T08:06:11;98721.30;;;19.69;76.74
11515;BME280;5814;41.936;25.556;2023-04-21T08:08:40;98719.69;;;19.66;76.28
11515;BME280;5814;41.936;25.556;2023-04-21T08:11:07;98715.17;;;18.85;77.82
11515;BME280;5814;41.936;25.556;2023-04-21T08:13:34;98712.95;;;19.17;79.95
11515;BME280;5814;41.936;25.556;2023-04-21T08:16:01;98706.69;;;19.50;78.58
11515;BME280;5814;41.936;25.556;2023-04-21T08:18:29;98705.71;;;19.39;78.29
11515;BME280;5814;41.936;25.556;2023-04-21T08:20:56;98690.13;;;19.23;80.66
11515;BME280;5814;41.936;25.556;2023-04-21T08:23:23;98694.44;;;19.68;78.14
11515;BME280;5814;41.936;25.556;2023-04-21T08:25:50;98689.92;;;20.06;75.41
11515;BME280;5814;41.936;25.556;2023-04-21T08:28:17;98691.47;;;20.27;73.27
11515;BME280;5814;41.936;25.556;2023-04-21T08:30:45;98690.64;;;20.56;72.87
11515;BME280;5814;41.936;25.556;2023-04-21T08:33:12;98665.42;;;20.45;71.00
11515;BME280;5814;41.936;25.556;2023-04-21T08:35:39;98683.30;;;20.77;69.35
11515;BME280;5814;41.936;25.556;2023-04-21T08:38:07;98686.16;;;20.92;66.28
11515;BME280;5814;41.936;25.556;2023-04-21T08:40:35;98676.73;;;20.82;65.32
11515;BME280;5814;41.936;25.556;2023-04-21T08:43:01;98664.16;;;20.96;65.12
11515;BME280;5814;41.936;25.556;2023-04-21T08:45:29;98663.62;;;21.09;64.45
11515;BME280;5814;41.936;25.556;2023-04-21T08:47:56;98661.40;;;21.20;63.07
11515;BME280;5814;41.936;25.556;2023-04-21T08:50:24;112497.60;;;-145.99;100.00
11515;BME280;5814;41.936;25.556;2023-04-21T08:52:50;112497.60;;;-145.99;100.00
11515;BME280;5814;41.936;25.556;2023-04-21T08:55:18;112497.60;;;-145.99;100.00
11515;BME280;5814;41.936;25.556;2023-04-21T08:57:45;112497.60;;;-145.99;100.00
11515;BME280;5814;41.936;25.556;2023-04-21T09:00:13;98666.50;;;21.57;56.62
11515;BME280;5814;41.936;25.556;2023-04-21T09:02:52;98669.16;;;21.73;55.85
11515;BME280;5814;41.936;25.556;2023-04-21T09:05:22;98665.58;;;21.52;54.14
11515;BME280;5814;41.936;25.556;2023-04-21T09:07:48;98671.83;;;21.79;53.64
11515;BME280;5814;41.936;25.556;2023-04-21T09:10:20;98665.69;;;21.67;52.94
11515;BME280;5814;41.936;25.556;2023-04-21T09:12:44;98657.16;;;21.69;52.45
11515;BME280;5814;41.936;25.556;2023-04-21T09:15:11;98665.23;;;21.51;52.34
11515;BME280;5814;41.936;25.556;2023-04-21T09:17:38;98660.79;;;21.11;53.51
11515;BME280;5814;41.936;25.556;2023-04-21T09:20:14;98651.27;;;21.25;53.60
11515;BME280;5814;41.936;25.556;2023-04-21T09:22:40;98654.79;;;21.49;54.60
11515;BME280;5814;41.936;25.556;2023-04-21T09:25:07;112497.60;;;-145.99;100.00
11515;BME280;5814;41.936;25.556;2023-04-21T09:27:35;112497.60;;;-145.99;100.00
11515;BME280;5814;41.936;25.556;2023-04-21T09:30:03;98647.13;;;21.99;53.54
11515;BME280;5814;41.936;25.556;2023-04-21T09:32:34;112497.60;;;-145.99;100.00
11515;BME280;5814;41.936;25.556;2023-04-21T09:34:59;112497.60;;;-145.99;100.00
11515;BME280;5814;41.936;25.556;2023-04-21T09:37:27;112497.60;;;-145.99;100.00
11515;BME280;5814;41.936;25.556;2023-04-21T09:39:53;112497.60;;;-145.99;100.00
11515;BME280;5814;41.936;25.556;2023-04-21T09:42:25;112497.60;;;-145.99;100.00
11515;BME280;5814;41.936;25.556;2023-04-21T09:44:47;112497.60;;;-145.99;100.00
11515;BME280;5814;41.936;25.556;2023-04-21T09:47:14;112497.60;;;-145.99;100.00
11515;BME280;5814;41.936;25.556;2023-04-21T09:49:42;112497.60;;;-145.99;100.00
11515;BME280;5814;41.936;25.556;2023-04-21T09:52:09;112497.60;;;-145.99;100.00
11515;BME280;5814;41.936;25.556;2023-04-21T09:54:36;112497.60;;;-145.99;100.00
11515;BME280;5814;41.936;25.556;2023-04-21T09:57:03;112497.60;;;-145.99;100.00
11515;BME280;5814;41.936;25.556;2023-04-21T09:59:33;112497.60;;;-145.99;100.00
11515;BME280;5814;41.936;25.556;2023-04-21T10:01:59;112497.60;;;-145.99;100.00
11515;BME280;5814;41.936;25.556;2023-04-21T10:04:26;112497.60;;;-145.99;100.00
11515;BME280;5814;41.936;25.556;2023-04-21T10:06:53;112497.60;;;-145.99;100.00
11515;BME280;5814;41.936;25.556;2023-04-21T10:09:21;112497.60;;;-145.99;100.00
11515;BME280;5814;41.936;25.556;2023-04-21T10:11:47;112497.60;;;-145.99;100.00
11515;BME280;5814;41.936;25.556;2023-04-21T10:14:14;112497.60;;;-145.99;100.00
11515;BME280;5814;41.936;25.556;2023-04-21T10:16:41;98628.41;;;21.07;51.85
11515;BME280;5814;41.936;25.556;2023-04-21T10:21:48;98624.02;;;21.40;51.20
11515;BME280;5814;41.936;25.556;2023-04-21T10:24:14;98617.44;;;21.51;48.81
11515;BME280;5814;41.936;25.556;2023-04-21T10:26:42;98623.12;;;21.46;49.39
11515;BME280;5814;41.936;25.556;2023-04-21T10:29:09;98606.51;;;21.21;50.55
11515;BME280;5814;41.936;25.556;2023-04-21T10:31:48;112497.60;;;-145.99;100.00
11515;BME280;5814;41.936;25.556;2023-04-21T10:34:12;98617.30;;;21.30;49.52
11515;BME280;5814;41.936;25.556;2023-04-21T10:37:06;98613.70;;;21.42;46.94
11515;BME280;5814;41.936;25.556;2023-04-21T10:39:26;98606.98;;;21.59;46.94
11515;BME280;5814;41.936;25.556;2023-04-21T10:41:55;98609.88;;;21.62;45.03
11515;BME280;5814;41.936;25.556;2023-04-21T10:44:22;98608.91;;;21.52;43.92
11515;BME280;5814;41.936;25.556;2023-04-21T10:46:50;98605.08;;;21.51;43.68
11515;BME280;5814;41.936;25.556;2023-04-21T10:49:24;98609.45;;;21.84;44.85
11515;BME280;5814;41.936;25.556;2023-04-21T10:52:03;98609.92;;;21.99;46.02
11515;BME280;5814;41.936;25.556;2023-04-21T10:54:42;98608.86;;;21.47;44.99
11515;BME280;5814;41.936;25.556;2023-04-21T10:57:10;98613.30;;;21.69;41.98
11515;BME280;5814;41.936;25.556;2023-04-21T10:59:36;98606.80;;;21.56;46.02
11515;BME280;5814;41.936;25.556;2023-04-21T11:02:06;98612.16;;;21.89;45.00
11515;BME280;5814;41.936;25.556;2023-04-21T11:04:32;98612.55;;;21.73;43.45
11515;BME280;5814;41.936;25.556;2023-04-21T11:07:05;98594.55;;;21.38;42.42
11515;BME280;5814;41.936;25.556;2023-04-21T11:09:34;98612.50;;;21.90;42.46
11515;BME280;5814;41.936;25.556;2023-04-21T11:12:01;98605.52;;;21.99;43.58
11515;BME280;5814;41.936;25.556;2023-04-21T11:14:27;98627.72;;;22.26;43.09
11515;BME280;5814;41.936;25.556;2023-04-21T11:16:54;98618.80;;;22.26;43.81
11515;BME280;5814;41.936;25.556;2023-04-21T11:19:22;98623.22;;;22.53;41.59
11515;BME280;5814;41.936;25.556;2023-04-21T11:21:49;98616.84;;;22.97;41.47
11515;BME280;5814;41.936;25.556;2023-04-21T11:24:16;98596.95;;;23.06;41.28
11515;BME280;5814;41.936;25.556;2023-04-21T11:26:43;98618.66;;;23.07;42.10
11515;BME280;5814;41.936;25.556;2023-04-21T11:29:10;98618.28;;;23.16;43.30
11515;BME280;5814;41.936;25.556;2023-04-21T11:31:39;98615.45;;;23.58;42.86
11515;BME280;5814;41.936;25.556;2023-04-21T11:34:06;98612.88;;;23.32;42.63
11515;BME280;5814;41.936;25.556;2023-04-21T11:36:35;98605.78;;;22.86;43.90
11515;BME280;5814;41.936;25.556;2023-04-21T11:39:05;98612.42;;;22.60;43.36
11515;BME280;5814;41.936;25.556;2023-04-21T11:41:31;98621.78;;;22.70;44.75
11515;BME280;5814;41.936;25.556;2023-04-21T11:43:58;98607.90;;;22.30;44.61
11515;BME280;5814;41.936;25.556;2023-04-21T11:46:26;98613.42;;;22.48;44.70
11515;BME280;5814;41.936;25.556;2023-04-21T11:49:01;98612.38;;;22.87;43.93
11515;BME280;5814;41.936;25.556;2023-04-21T11:51:34;98610.92;;;22.93;43.12
11515;BME280;5814;41.936;25.556;2023-04-21T11:54:00;98612.42;;;22.28;43.52
11515;BME280;5814;41.936;25.556;2023-04-21T11:56:27;98609.70;;;22.50;43.98
11515;BME280;5814;41.936;25.556;2023-04-21T11:58:54;98612.65;;;22.31;44.70
11515;BME280;5814;41.936;25.556;2023-04-21T12:01:22;98613.20;;;21.81;46.93
11515;BME280;5814;41.936;25.556;2023-04-21T12:03:50;98609.77;;;22.07;46.23
11515;BME280;5814;41.936;25.556;2023-04-21T12:06:24;98599.29;;;22.21;48.79
11515;BME280;5814;41.936;25.556;2023-04-21T12:08:59;98613.28;;;21.19;51.67
11515;BME280;5814;41.936;25.556;2023-04-21T12:11:27;98634.79;;;20.35;54.99
11515;BME280;5814;41.936;25.556;2023-04-21T12:13:57;98639.14;;;20.06;57.66
11515;BME280;5814;41.936;25.556;2023-04-21T12:16:24;98620.02;;;20.55;56.54
11515;BME280;5814;41.936;25.556;2023-04-21T12:18:51;98615.26;;;21.00;55.33
11515;BME280;5814;41.936;25.556;2023-04-21T12:21:18;98617.09;;;21.22;55.23
11515;BME280;5814;41.936;25.556;2023-04-21T12:23:46;98613.09;;;21.16;55.04
11515;BME280;5814;41.936;25.556;2023-04-21T12:26:13;98616.84;;;20.91;54.64
11515;BME280;5814;41.936;25.556;2023-04-21T12:28:40;98609.31;;;20.45;55.66
11515;BME280;5814;41.936;25.556;2023-04-21T12:31:07;98608.27;;;20.76;55.29
11515;BME280;5814;41.936;25.556;2023-04-21T12:33:34;98601.53;;;20.37;54.65
11515;BME280;5814;41.936;25.556;2023-04-21T12:36:01;98605.88;;;20.38;54.95
11515;BME280;5814;41.936;25.556;2023-04-21T12:38:29;98594.03;;;20.83;54.01
11515;BME280;5814;41.936;25.556;2023-04-21T12:40:56;98607.09;;;20.68;53.74
11515;BME280;5814;41.936;25.556;2023-04-21T12:43:23;98601.04;;;20.37;54.28
11515;BME280;5814;41.936;25.556;2023-04-21T12:45:51;98600.91;;;20.85;53.91
11515;BME280;5814;41.936;25.556;2023-04-21T12:48:18;98594.52;;;20.99;53.50
11515;BME280;5814;41.936;25.556;2023-04-21T12:50:45;98590.55;;;20.99;53.41
11515;BME280;5814;41.936;25.556;2023-04-21T12:53:12;98595.48;;;20.92;53.92